createdAt,value
2022-09-13T00:09:01.845Z,10.98
2022-09-13T00:29:04.321Z,10.58
2022-09-13T00:49:07.042Z,10.19
2022-09-13T01:09:09.742Z,9.70
2022-09-13T01:29:15.630Z,9.37
2022-09-13T01:49:18.283Z,9.30
2022-09-13T02:09:23.121Z,9.02
2022-09-13T02:29:26.197Z,9.08
2022-09-13T02:49:29.052Z,9.15
2022-09-13T03:09:31.476Z,9.26
2022-09-13T03:29:34.750Z,9.33
2022-09-13T03:49:37.273Z,9.35
2022-09-13T04:09:40.498Z,9.62
2022-09-13T04:29:43.063Z,9.86
2022-09-13T04:49:45.697Z,9.81
2022-09-13T05:09:48.474Z,10.19
2022-09-13T05:29:50.997Z,10.65
2022-09-13T05:50:09.947Z,11.33
2022-09-13T06:10:13.293Z,11.93
2022-09-13T06:30:16.825Z,12.75
2022-09-13T06:50:20.426Z,14.00
2022-09-13T07:10:23.995Z,14.82
2022-09-13T07:30:28.533Z,15.09
2022-09-13T07:50:34.991Z,15.27
2022-09-13T08:10:37.776Z,15.52
2022-09-13T08:30:40.323Z,16.68
2022-09-13T08:50:44.339Z,17.52
2022-09-13T09:10:46.960Z,19.01
2022-09-13T09:30:49.737Z,19.99
2022-09-13T09:50:52.421Z,19.98
2022-09-13T10:10:54.909Z,20.84
2022-09-13T10:30:57.457Z,21.21
2022-09-13T10:51:00.047Z,21.86
2022-09-13T11:11:02.534Z,21.30
2022-09-13T11:31:05.290Z,21.06
2022-09-13T11:51:07.948Z,21.08
2022-09-13T12:11:15.390Z,22.26
2022-09-13T12:31:20.667Z,22.29
2022-09-13T12:51:23.338Z,22.11
2022-09-13T13:11:26.033Z,22.79
2022-09-13T13:31:29.023Z,22.99
2022-09-13T13:51:31.635Z,22.71
2022-09-13T14:11:34.439Z,22.48
2022-09-13T14:31:37.083Z,22.50
2022-09-13T14:51:39.752Z,21.98
2022-09-13T15:11:42.165Z,21.70
2022-09-13T15:31:45.725Z,22.01
2022-09-13T15:51:48.553Z,21.55
2022-09-13T16:11:50.952Z,20.95
2022-09-13T16:31:53.657Z,20.83
2022-09-13T16:51:57.919Z,20.22
2022-09-13T17:12:00.313Z,19.78
2022-09-13T17:32:02.893Z,19.32
2022-09-13T17:52:05.474Z,18.71
2022-09-13T18:12:08.284Z,18.49
2022-09-13T18:32:11.110Z,18.51
2022-09-13T18:52:13.759Z,18.53
2022-09-13T19:12:16.206Z,18.21
2022-09-13T19:32:18.798Z,18.19
2022-09-13T19:52:23.015Z,18.10
2022-09-13T20:12:28.488Z,17.83
2022-09-13T20:32:31.135Z,17.14
2022-09-13T20:52:33.711Z,17.06
2022-09-13T21:12:37.598Z,16.78
2022-09-13T21:32:42.104Z,17.05
2022-09-13T21:52:44.860Z,16.89
2022-09-13T22:12:47.270Z,16.45
2022-09-13T22:32:49.790Z,16.30
2022-09-13T22:52:52.637Z,15.49
2022-09-13T23:12:55.068Z,14.93
2022-09-13T23:32:57.698Z,14.85
2022-09-13T23:53:00.626Z,14.99
